createdAt,value
2022-11-17T00:01:22.303Z,2.35
2022-11-17T00:03:51.126Z,3.30
2022-11-17T00:06:20.921Z,2.97
2022-11-17T00:08:49.060Z,2.80
2022-11-17T00:11:16.960Z,2.80
2022-11-17T00:14:02.922Z,2.67
2022-11-17T00:16:30.778Z,2.63
2022-11-17T00:19:16.451Z,2.80
2022-11-17T00:21:43.907Z,2.03
2022-11-17T00:24:11.019Z,2.78
2022-11-17T00:27:00.627Z,3.10
2022-11-17T00:29:28.721Z,2.30
2022-11-17T00:32:14.681Z,3.10
2022-11-17T00:34:42.179Z,2.33
2022-11-17T00:37:11.716Z,2.55
2022-11-17T00:39:39.576Z,2.17
2022-11-17T00:42:07.166Z,2.45
2022-11-17T00:44:34.708Z,2.72
2022-11-17T00:47:02.916Z,2.30
2022-11-17T00:49:30.022Z,2.38
2022-11-17T00:51:58.024Z,1.80
2022-11-17T00:54:25.335Z,2.15
2022-11-17T00:56:53.706Z,2.22
2022-11-17T00:59:21.535Z,2.03
2022-11-17T01:01:48.959Z,2.40
2022-11-17T01:04:16.543Z,2.30
2022-11-17T01:06:47.058Z,2.45
2022-11-17T01:09:18.543Z,3.03
2022-11-17T01:11:46.499Z,1.95
2022-11-17T01:14:30.276Z,2.15
2022-11-17T01:16:57.215Z,2.00
2022-11-17T01:19:24.594Z,1.88
2022-11-17T01:21:51.996Z,1.40
2022-11-17T01:24:19.841Z,1.70
2022-11-17T01:26:46.721Z,1.92
2022-11-17T01:29:15.212Z,1.70
2022-11-17T01:31:46.256Z,1.60
2022-11-17T01:34:14.135Z,1.42
2022-11-17T01:37:01.668Z,1.70
2022-11-17T01:39:30.670Z,2.13
2022-11-17T01:41:59.870Z,1.60
2022-11-17T01:44:44.588Z,1.98
2022-11-17T01:47:25.626Z,1.60
2022-11-17T01:50:00.078Z,1.60
2022-11-17T01:52:29.142Z,1.92
2022-11-17T01:54:58.792Z,1.67
2022-11-17T01:57:33.317Z,1.67
2022-11-17T02:00:06.519Z,1.80
2022-11-17T02:02:39.076Z,1.77
2022-11-17T02:05:18.741Z,1.33
2022-11-17T02:07:48.478Z,1.20
2022-11-17T02:10:16.034Z,1.58
2022-11-17T02:12:44.265Z,1.33
2022-11-17T02:15:11.752Z,1.23
2022-11-17T02:17:43.957Z,1.02
2022-11-17T02:20:21.884Z,1.15
2022-11-17T02:23:17.191Z,1.65
2022-11-17T02:26:15.579Z,0.90
2022-11-17T02:29:06.364Z,1.30
2022-11-17T02:31:58.515Z,1.17
2022-11-17T02:34:32.482Z,1.55
2022-11-17T02:37:17.786Z,1.40
2022-11-17T02:39:55.599Z,1.35
2022-11-17T02:42:42.635Z,1.20
2022-11-17T02:45:15.908Z,1.92
2022-11-17T02:47:47.283Z,2.03
2022-11-17T02:50:17.020Z,2.20
2022-11-17T02:52:44.481Z,1.48
2022-11-17T02:55:12.376Z,2.15
2022-11-17T02:57:41.635Z,1.83
2022-11-17T03:00:21.781Z,2.38
2022-11-17T03:03:32.310Z,1.73
2022-11-17T03:06:24.157Z,2.00
2022-11-17T03:09:19.112Z,2.53
2022-11-17T03:11:51.127Z,2.80
2022-11-17T03:14:27.582Z,2.57
2022-11-17T03:17:05.689Z,2.42
2022-11-17T03:19:45.194Z,1.93
2022-11-17T03:22:15.035Z,2.13
2022-11-17T03:24:51.044Z,2.28
2022-11-17T03:27:26.132Z,1.77
2022-11-17T03:29:58.559Z,2.10
2022-11-17T03:32:30.770Z,2.42
2022-11-17T03:35:02.383Z,2.22
2022-11-17T03:37:32.535Z,2.27
2022-11-17T03:40:05.577Z,2.22
2022-11-17T03:42:36.826Z,2.30
2022-11-17T03:45:25.018Z,2.78
2022-11-17T03:48:13.112Z,2.13
2022-11-17T03:51:10.533Z,1.98
2022-11-17T03:53:38.046Z,2.70
2022-11-17T03:56:23.999Z,2.30
2022-11-17T03:58:58.751Z,2.20
2022-11-17T04:01:29.299Z,2.13
2022-11-17T04:03:56.472Z,2.60
2022-11-17T04:06:23.886Z,2.78
2022-11-17T04:08:51.171Z,3.13
2022-11-17T04:11:37.118Z,3.50
2022-11-17T04:14:23.059Z,3.80
2022-11-17T04:16:49.826Z,4.28
2022-11-17T04:19:16.920Z,3.60
2022-11-17T04:21:43.796Z,3.75
2022-11-17T04:24:10.745Z,3.50
2022-11-17T04:26:56.101Z,3.47
2022-11-17T04:29:22.981Z,3.88
2022-11-17T04:31:49.756Z,4.13
2022-11-17T04:34:16.552Z,3.97
2022-11-17T04:36:43.526Z,3.63
2022-11-17T04:39:12.089Z,4.40
2022-11-17T04:41:54.581Z,3.72
2022-11-17T04:44:26.676Z,4.30
2022-11-17T04:46:55.093Z,4.32
2022-11-17T04:49:23.408Z,4.68
2022-11-17T04:51:51.611Z,4.30
2022-11-17T04:54:21.720Z,4.13
2022-11-17T04:56:48.492Z,3.83
2022-11-17T04:59:15.313Z,4.10
2022-11-17T05:01:42.079Z,4.00
2022-11-17T05:04:10.714Z,4.32
2022-11-17T05:06:45.107Z,4.45
2022-11-17T05:09:15.114Z,4.43
2022-11-17T05:12:01.704Z,4.50
2022-11-17T05:14:29.658Z,4.83
2022-11-17T05:17:09.369Z,5.03
2022-11-17T05:19:44.496Z,4.90
2022-11-17T05:22:39.989Z,4.50
2022-11-17T05:25:07.646Z,4.60
2022-11-17T05:27:34.765Z,5.23
2022-11-17T05:30:02.896Z,5.00
2022-11-17T05:32:29.611Z,4.73
2022-11-17T05:34:56.317Z,4.67
2022-11-17T05:37:23.109Z,4.80
2022-11-17T05:39:49.716Z,4.70
2022-11-17T05:42:16.402Z,4.87
2022-11-17T05:44:43.305Z,4.27
2022-11-17T05:47:10.032Z,4.30
2022-11-17T05:49:36.701Z,4.03
2022-11-17T05:52:03.359Z,4.53
2022-11-17T05:54:30.076Z,4.00
2022-11-17T05:57:01.869Z,3.72
2022-11-17T05:59:46.899Z,4.33
2022-11-17T06:02:25.737Z,4.13
2022-11-17T06:04:52.564Z,4.77
2022-11-17T06:07:19.892Z,4.37
2022-11-17T11:39:55.842Z,3.73
2022-11-17T11:42:22.500Z,4.80
2022-11-17T11:45:07.780Z,4.97
2022-11-17T11:48:11.749Z,4.33
2022-11-17T11:50:58.166Z,6.22
2022-11-17T11:53:42.662Z,4.57
2022-11-17T11:56:17.938Z,5.00
2022-11-17T11:59:48.595Z,3.77
2022-11-17T12:02:36.957Z,7.23
2022-11-17T12:05:25.531Z,6.63
2022-11-17T12:08:13.644Z,12.33
2022-11-17T12:10:49.390Z,8.97
2022-11-17T12:13:18.936Z,9.47
2022-11-17T12:15:45.723Z,16.20
2022-11-17T12:18:18.133Z,14.70
2022-11-17T12:20:52.955Z,7.27
2022-11-17T12:23:32.234Z,13.93
2022-11-17T12:26:00.577Z,8.50
2022-11-17T12:28:40.172Z,9.40
2022-11-17T12:31:10.826Z,6.57
2022-11-17T12:34:00.489Z,12.70
2022-11-17T12:36:34.511Z,6.70
2022-11-17T12:39:04.127Z,4.70
2022-11-17T12:41:49.659Z,4.10
2022-11-17T12:44:38.535Z,6.73
2022-11-17T12:47:11.463Z,5.03
2022-11-17T12:49:50.268Z,4.40
2022-11-17T12:52:41.985Z,12.13
2022-11-17T12:55:25.807Z,10.80
2022-11-17T12:58:09.201Z,6.68
2022-11-17T13:01:03.330Z,6.10
2022-11-17T13:03:46.332Z,7.47
2022-11-17T13:09:12.351Z,5.03
2022-11-17T13:11:39.312Z,3.77
2022-11-17T13:14:07.206Z,3.40
2022-11-17T13:16:37.206Z,4.00
2022-11-17T13:19:29.763Z,6.20
2022-11-17T13:22:17.261Z,6.03
2022-11-17T13:24:49.580Z,5.43
2022-11-17T13:27:36.531Z,3.83
2022-11-17T13:30:23.739Z,4.83
2022-11-17T13:32:51.030Z,4.50
2022-11-17T13:35:32.377Z,4.90
2022-11-17T13:38:12.376Z,7.47
2022-11-17T13:40:41.763Z,4.80
2022-11-17T13:43:13.983Z,4.40
2022-11-17T13:45:43.337Z,5.33
2022-11-17T13:48:32.190Z,8.20
2022-11-17T13:51:21.090Z,6.20
2022-11-17T13:53:53.035Z,8.60
2022-11-17T13:56:32.871Z,10.10
2022-11-17T13:59:04.208Z,5.77
2022-11-17T14:01:33.321Z,9.10
2022-11-17T14:04:22.053Z,8.20
2022-11-17T14:06:56.627Z,6.57
2022-11-17T14:09:25.025Z,7.57
2022-11-17T14:11:52.217Z,5.97
2022-11-17T14:14:28.619Z,6.87
2022-11-17T14:16:55.480Z,5.40
2022-11-17T14:19:30.869Z,4.27
2022-11-17T14:22:02.128Z,13.30
2022-11-17T14:24:30.084Z,9.43
2022-11-17T14:26:57.493Z,11.67
2022-11-17T14:29:24.937Z,5.07
2022-11-17T14:31:51.642Z,16.83
2022-11-17T14:34:18.485Z,9.80
2022-11-17T14:36:54.612Z,9.00
2022-11-17T14:39:22.005Z,7.53
2022-11-17T14:41:50.589Z,5.40
2022-11-17T14:44:17.685Z,4.70
2022-11-17T14:46:44.397Z,6.80
2022-11-17T14:49:11.260Z,7.30
2022-11-17T14:51:38.148Z,19.90
2022-11-17T14:54:04.992Z,8.57
2022-11-17T14:56:31.852Z,8.33
2022-11-17T14:58:59.946Z,7.23
2022-11-17T15:01:32.219Z,12.40
2022-11-17T15:04:11.010Z,20.37
2022-11-17T15:06:48.836Z,7.03
2022-11-17T15:09:16.838Z,16.17
2022-11-17T15:11:44.076Z,14.10
2022-11-17T15:14:11.296Z,23.20
2022-11-17T15:16:38.417Z,16.53
2022-11-17T15:19:06.966Z,13.73
2022-11-17T15:21:34.304Z,10.27
2022-11-17T15:24:03.544Z,13.50
2022-11-17T15:26:30.391Z,6.10
2022-11-17T15:29:00.079Z,6.80
2022-11-17T15:31:27.110Z,8.50
2022-11-17T15:33:53.881Z,9.33
2022-11-17T15:36:23.068Z,9.97
2022-11-17T15:38:50.220Z,7.60
2022-11-17T15:41:17.428Z,8.70
2022-11-17T15:43:45.384Z,10.90
2022-11-17T15:46:15.456Z,7.07
2022-11-17T15:48:45.791Z,8.60
2022-11-17T15:51:14.993Z,16.23
2022-11-17T15:53:43.553Z,17.50
2022-11-17T15:56:16.960Z,17.33
2022-11-17T15:58:44.185Z,34.13
2022-11-17T16:01:11.277Z,40.77
2022-11-17T16:03:39.482Z,64.17
2022-11-17T16:06:06.567Z,89.83
2022-11-17T16:08:33.726Z,21.73
2022-11-17T16:11:00.859Z,17.37
2022-11-17T16:13:27.671Z,59.57
2022-11-17T16:15:55.063Z,23.33
2022-11-17T16:18:22.601Z,30.60
2022-11-17T16:20:51.855Z,12.87
2022-11-17T16:23:19.390Z,36.30
2022-11-17T16:25:48.407Z,16.37
2022-11-17T16:28:17.203Z,17.50
2022-11-17T16:30:44.842Z,29.00
2022-11-17T16:33:14.205Z,25.07
2022-11-17T16:35:41.689Z,23.53
2022-11-17T16:38:14.677Z,62.90
2022-11-17T16:40:42.356Z,24.13
2022-11-17T16:43:13.477Z,48.93
2022-11-17T16:45:45.657Z,13.97
2022-11-17T16:48:13.281Z,13.10
2022-11-17T16:50:41.529Z,52.93
2022-11-17T16:53:08.476Z,18.37
2022-11-17T16:55:41.297Z,21.13
2022-11-17T16:58:08.313Z,16.85
2022-11-17T17:00:35.159Z,19.90
2022-11-17T17:03:02.513Z,26.40
2022-11-17T17:05:32.324Z,14.47
2022-11-17T17:07:59.228Z,12.53
2022-11-17T17:10:26.093Z,16.87
2022-11-17T17:12:52.934Z,12.13
2022-11-17T17:15:19.792Z,13.80
2022-11-17T17:17:46.932Z,24.03
2022-11-17T17:20:13.738Z,21.97
2022-11-17T17:22:40.567Z,15.87
2022-11-17T17:25:08.271Z,17.60
2022-11-17T17:27:35.195Z,16.33
2022-11-17T17:30:02.152Z,16.80
2022-11-17T17:32:28.990Z,13.87
2022-11-17T17:34:55.928Z,17.63
2022-11-17T17:37:22.867Z,11.37
2022-11-17T17:39:49.736Z,16.13
2022-11-17T17:42:16.676Z,13.13
2022-11-17T17:44:43.514Z,10.77
2022-11-17T17:47:10.479Z,10.97
2022-11-17T17:49:37.417Z,10.97
2022-11-17T17:52:08.471Z,10.43
2022-11-17T17:54:39.417Z,11.10
2022-11-17T17:57:06.202Z,12.03
2022-11-17T17:59:33.381Z,11.43
2022-11-17T18:02:00.265Z,14.90
2022-11-17T18:04:28.238Z,12.70
2022-11-17T18:06:56.039Z,12.17
2022-11-17T18:09:23.061Z,9.93
2022-11-17T18:11:51.222Z,21.93
2022-11-17T18:14:24.135Z,12.93
2022-11-17T18:16:53.116Z,13.53
2022-11-17T18:19:20.114Z,10.83
2022-11-17T18:21:47.172Z,13.30
2022-11-17T18:24:14.868Z,14.77
2022-11-17T18:26:42.018Z,11.93
2022-11-17T18:29:13.764Z,10.53
2022-11-17T18:31:41.030Z,12.27
2022-11-17T18:34:15.485Z,11.50
2022-11-17T18:36:42.665Z,13.03
2022-11-17T18:39:09.843Z,9.83
2022-11-17T18:41:37.396Z,12.60
2022-11-17T18:44:04.914Z,11.00
2022-11-17T18:46:33.527Z,9.83
2022-11-17T18:49:00.879Z,14.00
2022-11-17T18:51:31.135Z,9.97
2022-11-17T18:54:00.942Z,10.67
2022-11-17T18:56:38.646Z,11.20
2022-11-17T18:59:13.952Z,10.23
2022-11-17T19:01:43.333Z,11.93
2022-11-17T19:04:14.232Z,11.00
2022-11-17T19:06:41.350Z,12.93
2022-11-17T19:09:08.626Z,13.27
2022-11-17T19:11:36.057Z,12.70
2022-11-17T19:14:04.455Z,9.70
2022-11-17T19:16:33.023Z,8.97
2022-11-17T19:19:00.363Z,10.13
2022-11-17T19:21:30.415Z,8.83
2022-11-17T19:23:59.309Z,9.77
2022-11-17T19:26:29.443Z,8.97
2022-11-17T19:28:58.555Z,10.13
2022-11-17T19:31:26.585Z,10.90
2022-11-17T19:33:54.712Z,10.00
2022-11-17T19:36:27.782Z,20.13
2022-11-17T19:38:56.170Z,11.50
2022-11-17T19:41:28.312Z,11.80
2022-11-17T19:43:56.860Z,13.57
2022-11-17T19:46:25.482Z,14.87
2022-11-17T19:48:52.950Z,19.13
2022-11-17T19:51:24.171Z,10.00
2022-11-17T19:53:53.691Z,13.57
2022-11-17T19:56:21.649Z,11.23
2022-11-17T19:58:50.199Z,16.80
2022-11-17T20:01:22.567Z,12.03
2022-11-17T20:03:50.990Z,10.67
2022-11-17T20:06:20.757Z,11.13
2022-11-17T20:08:48.834Z,12.00
2022-11-17T20:11:21.871Z,16.77
2022-11-17T20:13:49.240Z,11.52
2022-11-17T20:16:27.586Z,11.90
2022-11-17T20:18:57.012Z,11.47
2022-11-17T20:21:25.283Z,14.50
2022-11-17T20:23:52.582Z,14.60
2022-11-17T20:26:21.959Z,12.67
2022-11-17T20:28:52.331Z,11.37
2022-11-17T20:31:21.954Z,11.20
2022-11-17T20:33:49.207Z,11.77
2022-11-17T20:36:21.267Z,15.63
2022-11-17T20:38:56.847Z,13.70
2022-11-17T20:41:25.037Z,18.13
2022-11-17T20:43:55.868Z,19.07
2022-11-17T20:46:24.306Z,11.57
2022-11-17T20:48:52.093Z,9.53
2022-11-17T20:51:24.174Z,9.83
2022-11-17T20:53:51.509Z,14.93
2022-11-17T20:56:19.664Z,33.53
2022-11-17T20:58:48.027Z,27.37
2022-11-17T21:01:20.342Z,20.67
2022-11-17T21:03:48.618Z,39.63
2022-11-17T21:06:16.711Z,15.23
2022-11-17T21:08:44.837Z,29.50
2022-11-17T21:11:39.484Z,19.43
2022-11-17T21:14:08.469Z,11.23
2022-11-17T21:16:37.842Z,11.23
2022-11-17T21:19:05.584Z,17.50
2022-11-17T21:21:32.772Z,31.13
2022-11-17T21:24:00.205Z,20.90
2022-11-17T21:26:28.404Z,18.07
2022-11-17T21:28:55.826Z,27.03
2022-11-17T21:31:26.080Z,12.73
2022-11-17T21:34:00.450Z,12.37
2022-11-17T21:36:29.201Z,12.43
2022-11-17T21:38:57.359Z,14.60
2022-11-17T21:41:27.148Z,10.60
2022-11-17T21:43:55.673Z,8.47
2022-11-17T21:46:27.525Z,9.37
2022-11-17T21:48:56.204Z,8.47
2022-11-17T21:51:26.281Z,9.90
2022-11-17T21:53:54.660Z,17.30
2022-11-17T21:56:25.970Z,12.13
2022-11-17T21:58:56.123Z,10.87
2022-11-17T22:01:23.897Z,11.70
2022-11-17T22:03:50.987Z,10.23
2022-11-17T22:06:20.588Z,17.00
2022-11-17T22:08:48.292Z,11.63
2022-11-17T22:11:35.917Z,9.93
2022-11-17T22:14:18.269Z,15.30
2022-11-17T22:16:52.304Z,14.47
2022-11-17T22:19:21.148Z,10.40
2022-11-17T22:21:50.359Z,8.50
2022-11-17T22:24:18.144Z,16.30
2022-11-17T22:26:46.660Z,9.00
2022-11-17T22:29:21.820Z,9.87
2022-11-17T22:31:49.584Z,10.67
2022-11-17T22:34:17.835Z,10.17
2022-11-17T22:36:44.876Z,9.30
2022-11-17T22:39:12.253Z,10.87
2022-11-17T22:41:39.845Z,10.73
2022-11-17T22:44:07.017Z,11.40
2022-11-17T22:46:36.301Z,10.17
2022-11-17T22:49:03.639Z,7.60
2022-11-17T22:51:49.277Z,8.80
2022-11-17T22:54:17.509Z,7.93
2022-11-17T22:56:45.073Z,8.87
2022-11-17T22:59:12.203Z,7.73
2022-11-17T23:01:39.376Z,7.53
2022-11-17T23:04:06.940Z,7.87
2022-11-17T23:06:34.195Z,7.97
2022-11-17T23:09:01.301Z,8.67
2022-11-17T23:11:37.547Z,8.40
2022-11-17T23:14:08.317Z,8.43
2022-11-17T23:16:37.012Z,6.87
2022-11-17T23:19:05.708Z,20.73
2022-11-17T23:21:33.357Z,10.60
2022-11-17T23:24:00.799Z,9.37
2022-11-17T23:26:27.897Z,10.03
2022-11-17T23:28:55.100Z,8.00
2022-11-17T23:31:22.374Z,9.23
2022-11-17T23:33:49.634Z,11.27
2022-11-17T23:36:20.253Z,8.73
2022-11-17T23:38:48.438Z,6.60
2022-11-17T23:41:17.787Z,6.57
2022-11-17T23:43:45.159Z,6.33
2022-11-17T23:46:17.575Z,6.03
2022-11-17T23:48:44.969Z,26.50
2022-11-17T23:51:14.352Z,7.87
2022-11-17T23:53:42.209Z,6.90
2022-11-17T23:56:10.785Z,8.37
2022-11-17T23:58:38.591Z,7.13
